sensor_id;sensor_type;location;lat;lon;timestamp;P1;durP1;ratioP1;P2;durP2;ratioP2
46290;SDS011;32023;44.444;26.006;2023-08-08T00:02:00;4.95;;;2.17;;
46290;SDS011;32023;44.444;26.006;2023-08-08T00:04:27;3.95;;;1.95;;
46290;SDS011;32023;44.444;26.006;2023-08-08T00:07:00;6.07;;;2.00;;
46290;SDS011;32023;44.444;26.006;2023-08-08T00:09:28;4.95;;;2.00;;
46290;SDS011;32023;44.444;26.006;2023-08-08T00:12:05;5.10;;;2.40;;
46290;SDS011;32023;44.444;26.006;2023-08-08T00:14:41;5.03;;;1.80;;
46290;SDS011;32023;44.444;26.006;2023-08-08T00:17:08;7.38;;;1.73;;
46290;SDS011;32023;44.444;26.006;2023-08-08T00:19:38;6.22;;;2.20;;
46290;SDS011;32023;44.444;26.006;2023-08-08T00:22:12;4.35;;;2.30;;
46290;SDS011;32023;44.444;26.006;2023-08-08T00:25:07;4.97;;;2.03;;
46290;SDS011;32023;44.444;26.006;2023-08-08T00:27:40;3.65;;;2.05;;
46290;SDS011;32023;44.444;26.006;2023-08-08T00:30:15;4.88;;;1.80;;
46290;SDS011;32023;44.444;26.006;2023-08-08T00:32:42;5.72;;;2.17;;
46290;SDS011;32023;44.444;26.006;2023-08-08T00:35:09;5.90;;;2.05;;
46290;SDS011;32023;44.444;26.006;2023-08-08T00:37:38;4.20;;;2.00;;
46290;SDS011;32023;44.444;26.006;2023-08-08T00:40:07;8.68;;;2.35;;
46290;SDS011;32023;44.444;26.006;2023-08-08T00:42:35;3.08;;;2.03;;
46290;SDS011;32023;44.444;26.006;2023-08-08T00:45:05;2.03;;;1.58;;
46290;SDS011;32023;44.444;26.006;2023-08-08T00:47:39;2.88;;;2.03;;
46290;SDS011;32023;44.444;26.006;2023-08-08T00:50:14;3.42;;;2.00;;
46290;SDS011;32023;44.444;26.006;2023-08-08T00:52:43;3.05;;;2.38;;
46290;SDS011;32023;44.444;26.006;2023-08-08T00:55:15;4.00;;;1.88;;
46290;SDS011;32023;44.444;26.006;2023-08-08T01:00:43;4.82;;;2.00;;
46290;SDS011;32023;44.444;26.006;2023-08-08T01:03:17;4.50;;;2.03;;
46290;SDS011;32023;44.444;26.006;2023-08-08T01:05:47;4.18;;;2.35;;
46290;SDS011;32023;44.444;26.006;2023-08-08T01:11:24;5.20;;;2.10;;
46290;SDS011;32023;44.444;26.006;2023-08-08T01:13:58;4.55;;;2.28;;
46290;SDS011;32023;44.444;26.006;2023-08-08T01:16:40;2.72;;;2.05;;
46290;SDS011;32023;44.444;26.006;2023-08-08T01:21:53;4.28;;;1.90;;
46290;SDS011;32023;44.444;26.006;2023-08-08T01:24:36;2.67;;;2.15;;
46290;SDS011;32023;44.444;26.006;2023-08-08T01:27:09;4.28;;;2.05;;
46290;SDS011;32023;44.444;26.006;2023-08-08T01:29:43;3.10;;;2.22;;
46290;SDS011;32023;44.444;26.006;2023-08-08T01:32:13;2.65;;;2.10;;
46290;SDS011;32023;44.444;26.006;2023-08-08T01:34:45;3.53;;;2.13;;
46290;SDS011;32023;44.444;26.006;2023-08-08T01:40:01;7.20;;;2.17;;
46290;SDS011;32023;44.444;26.006;2023-08-08T01:42:32;3.70;;;2.35;;
46290;SDS011;32023;44.444;26.006;2023-08-08T01:45:05;5.45;;;2.90;;
46290;SDS011;32023;44.444;26.006;2023-08-08T01:47:57;3.10;;;2.10;;
46290;SDS011;32023;44.444;26.006;2023-08-08T01:50:23;7.30;;;2.00;;
46290;SDS011;32023;44.444;26.006;2023-08-08T01:52:50;2.65;;;1.92;;
46290;SDS011;32023;44.444;26.006;2023-08-08T01:55:26;2.58;;;1.48;;
46290;SDS011;32023;44.444;26.006;2023-08-08T01:57:58;3.72;;;1.90;;
46290;SDS011;32023;44.444;26.006;2023-08-08T02:00:27;2.28;;;1.80;;
46290;SDS011;32023;44.444;26.006;2023-08-08T02:03:01;2.25;;;1.58;;
46290;SDS011;32023;44.444;26.006;2023-08-08T02:05:38;3.33;;;1.42;;
46290;SDS011;32023;44.444;26.006;2023-08-08T02:08:10;2.40;;;1.73;;
46290;SDS011;32023;44.444;26.006;2023-08-08T02:10:49;2.92;;;1.52;;
46290;SDS011;32023;44.444;26.006;2023-08-08T02:13:26;4.32;;;1.80;;
46290;SDS011;32023;44.444;26.006;2023-08-08T02:16:00;4.28;;;1.92;;
46290;SDS011;32023;44.444;26.006;2023-08-08T02:18:39;2.15;;;1.63;;
46290;SDS011;32023;44.444;26.006;2023-08-08T02:21:13;4.10;;;1.98;;
46290;SDS011;32023;44.444;26.006;2023-08-08T02:23:57;2.35;;;1.65;;
46290;SDS011;32023;44.444;26.006;2023-08-08T02:26:24;2.72;;;1.70;;
46290;SDS011;32023;44.444;26.006;2023-08-08T02:28:56;6.60;;;1.85;;
46290;SDS011;32023;44.444;26.006;2023-08-08T02:31:24;2.83;;;2.10;;
46290;SDS011;32023;44.444;26.006;2023-08-08T02:33:51;2.15;;;1.63;;
46290;SDS011;32023;44.444;26.006;2023-08-08T02:36:20;2.42;;;2.03;;
46290;SDS011;32023;44.444;26.006;2023-08-08T02:38:47;2.80;;;1.75;;
46290;SDS011;32023;44.444;26.006;2023-08-08T02:41:21;3.72;;;2.00;;
46290;SDS011;32023;44.444;26.006;2023-08-08T02:43:48;6.22;;;2.20;;
46290;SDS011;32023;44.444;26.006;2023-08-08T02:46:14;2.40;;;1.95;;
46290;SDS011;32023;44.444;26.006;2023-08-08T02:48:48;5.30;;;2.05;;
46290;SDS011;32023;44.444;26.006;2023-08-08T02:51:18;4.55;;;2.10;;
46290;SDS011;32023;44.444;26.006;2023-08-08T02:53:47;3.13;;;2.13;;
46290;SDS011;32023;44.444;26.006;2023-08-08T02:56:16;2.67;;;1.80;;
46290;SDS011;32023;44.444;26.006;2023-08-08T02:58:45;3.90;;;2.25;;
46290;SDS011;32023;44.444;26.006;2023-08-08T03:01:12;3.25;;;2.38;;
46290;SDS011;32023;44.444;26.006;2023-08-08T03:03:47;3.15;;;2.17;;
46290;SDS011;32023;44.444;26.006;2023-08-08T03:06:17;2.08;;;1.73;;
46290;SDS011;32023;44.444;26.006;2023-08-08T03:09:13;3.28;;;2.10;;
46290;SDS011;32023;44.444;26.006;2023-08-08T03:12:13;2.58;;;2.00;;
46290;SDS011;32023;44.444;26.006;2023-08-08T03:14:43;6.20;;;2.05;;
46290;SDS011;32023;44.444;26.006;2023-08-08T03:17:26;2.55;;;2.20;;
46290;SDS011;32023;44.444;26.006;2023-08-08T03:25:18;2.95;;;1.42;;
46290;SDS011;32023;44.444;26.006;2023-08-08T03:27:46;2.63;;;2.25;;
46290;SDS011;32023;44.444;26.006;2023-08-08T03:30:13;3.13;;;2.42;;
46290;SDS011;32023;44.444;26.006;2023-08-08T03:32:43;3.08;;;2.05;;
46290;SDS011;32023;44.444;26.006;2023-08-08T03:35:21;4.05;;;2.20;;
46290;SDS011;32023;44.444;26.006;2023-08-08T03:40:52;2.88;;;1.90;;
46290;SDS011;32023;44.444;26.006;2023-08-08T03:43:19;2.63;;;2.40;;
46290;SDS011;32023;44.444;26.006;2023-08-08T03:45:52;2.38;;;2.10;;
46290;SDS011;32023;44.444;26.006;2023-08-08T03:48:27;5.15;;;2.33;;
46290;SDS011;32023;44.444;26.006;2023-08-08T03:51:04;5.45;;;2.97;;
46290;SDS011;32023;44.444;26.006;2023-08-08T03:53:36;7.38;;;3.75;;
46290;SDS011;32023;44.444;26.006;2023-08-08T03:56:05;4.53;;;3.13;;
46290;SDS011;32023;44.444;26.006;2023-08-08T03:58:48;4.55;;;3.10;;
46290;SDS011;32023;44.444;26.006;2023-08-08T04:01:20;5.20;;;3.38;;
46290;SDS011;32023;44.444;26.006;2023-08-08T04:03:51;5.57;;;3.80;;
46290;SDS011;32023;44.444;26.006;2023-08-08T04:06:17;4.22;;;3.10;;
46290;SDS011;32023;44.444;26.006;2023-08-08T04:08:49;4.82;;;3.55;;
46290;SDS011;32023;44.444;26.006;2023-08-08T04:11:28;4.95;;;3.28;;
46290;SDS011;32023;44.444;26.006;2023-08-08T04:14:00;4.88;;;3.22;;
46290;SDS011;32023;44.444;26.006;2023-08-08T04:16:27;3.78;;;3.05;;
46290;SDS011;32023;44.444;26.006;2023-08-08T04:22:18;4.47;;;3.65;;
46290;SDS011;32023;44.444;26.006;2023-08-08T04:25:28;6.13;;;3.55;;
46290;SDS011;32023;44.444;26.006;2023-08-08T04:28:10;3.70;;;3.30;;
46290;SDS011;32023;44.444;26.006;2023-08-08T04:30:40;5.43;;;3.33;;
46290;SDS011;32023;44.444;26.006;2023-08-08T04:35:54;7.15;;;4.07;;
46290;SDS011;32023;44.444;26.006;2023-08-08T04:47:44;7.53;;;4.47;;
46290;SDS011;32023;44.444;26.006;2023-08-08T04:53:04;7.20;;;4.60;;
46290;SDS011;32023;44.444;26.006;2023-08-08T04:55:49;4.68;;;4.28;;
46290;SDS011;32023;44.444;26.006;2023-08-08T04:58:21;6.60;;;4.93;;
46290;SDS011;32023;44.444;26.006;2023-08-08T05:01:16;9.48;;;6.32;;
46290;SDS011;32023;44.444;26.006;2023-08-08T05:06:57;10.57;;;5.70;;
46290;SDS011;32023;44.444;26.006;2023-08-08T05:12:51;5.57;;;4.82;;
46290;SDS011;32023;44.444;26.006;2023-08-08T05:15:29;7.00;;;5.03;;
46290;SDS011;32023;44.444;26.006;2023-08-08T05:18:51;7.65;;;5.40;;
46290;SDS011;32023;44.444;26.006;2023-08-08T05:21:19;9.35;;;6.93;;
46290;SDS011;32023;44.444;26.006;2023-08-08T05:24:49;7.80;;;6.13;;
46290;SDS011;32023;44.444;26.006;2023-08-08T05:27:54;6.78;;;4.80;;
46290;SDS011;32023;44.444;26.006;2023-08-08T05:30:34;6.03;;;5.32;;
46290;SDS011;32023;44.444;26.006;2023-08-08T05:36:20;5.40;;;4.82;;
46290;SDS011;32023;44.444;26.006;2023-08-08T05:38:50;6.90;;;4.57;;
46290;SDS011;32023;44.444;26.006;2023-08-08T05:41:43;8.77;;;4.38;;
46290;SDS011;32023;44.444;26.006;2023-08-08T05:44:18;8.55;;;5.35;;
46290;SDS011;32023;44.444;26.006;2023-08-08T05:47:12;5.07;;;4.68;;
46290;SDS011;32023;44.444;26.006;2023-08-08T05:50:35;7.65;;;4.95;;
46290;SDS011;32023;44.444;26.006;2023-08-08T05:53:05;7.18;;;4.68;;
46290;SDS011;32023;44.444;26.006;2023-08-08T05:56:33;8.50;;;5.10;;
46290;SDS011;32023;44.444;26.006;2023-08-08T06:05:49;4.93;;;4.32;;
46290;SDS011;32023;44.444;26.006;2023-08-08T06:08:29;5.35;;;4.00;;
46290;SDS011;32023;44.444;26.006;2023-08-08T06:11:17;5.00;;;4.50;;
46290;SDS011;32023;44.444;26.006;2023-08-08T06:14:12;9.32;;;4.40;;
46290;SDS011;32023;44.444;26.006;2023-08-08T06:17:08;9.23;;;5.40;;
46290;SDS011;32023;44.444;26.006;2023-08-08T06:19:42;5.40;;;4.70;;
46290;SDS011;32023;44.444;26.006;2023-08-08T06:22:42;6.10;;;4.53;;
46290;SDS011;32023;44.444;26.006;2023-08-08T06:25:14;5.13;;;4.68;;
46290;SDS011;32023;44.444;26.006;2023-08-08T06:27:54;7.63;;;5.30;;
46290;SDS011;32023;44.444;26.006;2023-08-08T06:31:21;7.05;;;4.63;;
46290;SDS011;32023;44.444;26.006;2023-08-08T06:34:10;6.38;;;5.22;;
46290;SDS011;32023;44.444;26.006;2023-08-08T06:36:40;6.80;;;5.38;;
46290;SDS011;32023;44.444;26.006;2023-08-08T06:39:36;9.45;;;8.20;;
46290;SDS011;32023;44.444;26.006;2023-08-08T06:52:40;7.10;;;5.13;;
46290;SDS011;32023;44.444;26.006;2023-08-08T07:46:58;8.55;;;7.15;;
46290;SDS011;32023;44.444;26.006;2023-08-08T07:59:11;9.77;;;7.38;;
46290;SDS011;32023;44.444;26.006;2023-08-08T08:04:56;8.60;;;7.80;;
46290;SDS011;32023;44.444;26.006;2023-08-08T08:07:26;9.07;;;8.07;;
46290;SDS011;32023;44.444;26.006;2023-08-08T08:09:52;8.13;;;6.65;;
46290;SDS011;32023;44.444;26.006;2023-08-08T08:23:26;7.20;;;6.45;;
46290;SDS011;32023;44.444;26.006;2023-08-08T08:26:32;9.10;;;6.68;;
46290;SDS011;32023;44.444;26.006;2023-08-08T08:29:13;8.65;;;7.22;;
46290;SDS011;32023;44.444;26.006;2023-08-08T08:31:40;11.75;;;8.43;;
46290;SDS011;32023;44.444;26.006;2023-08-08T08:34:35;8.30;;;7.47;;
46290;SDS011;32023;44.444;26.006;2023-08-08T08:37:01;9.27;;;7.63;;
46290;SDS011;32023;44.444;26.006;2023-08-08T08:39:34;9.73;;;7.43;;
46290;SDS011;32023;44.444;26.006;2023-08-08T08:45:33;9.02;;;7.68;;
46290;SDS011;32023;44.444;26.006;2023-08-08T08:48:51;9.95;;;8.20;;
46290;SDS011;32023;44.444;26.006;2023-08-08T08:51:34;12.07;;;7.85;;
46290;SDS011;32023;44.444;26.006;2023-08-08T08:57:34;10.10;;;7.65;;
46290;SDS011;32023;44.444;26.006;2023-08-08T09:06:11;7.95;;;7.10;;
46290;SDS011;32023;44.444;26.006;2023-08-08T09:08:49;9.27;;;7.25;;
46290;SDS011;32023;44.444;26.006;2023-08-08T09:17:15;7.95;;;6.30;;
46290;SDS011;32023;44.444;26.006;2023-08-08T09:20:04;6.95;;;6.38;;
46290;SDS011;32023;44.444;26.006;2023-08-08T09:22:49;8.50;;;6.03;;
46290;SDS011;32023;44.444;26.006;2023-08-08T09:35:22;5.82;;;5.32;;
46290;SDS011;32023;44.444;26.006;2023-08-08T09:38:13;6.40;;;4.60;;
46290;SDS011;32023;44.444;26.006;2023-08-08T09:40:42;5.07;;;4.43;;
46290;SDS011;32023;44.444;26.006;2023-08-08T09:43:15;4.60;;;4.10;;
46290;SDS011;32023;44.444;26.006;2023-08-08T09:45:51;4.43;;;3.88;;
46290;SDS011;32023;44.444;26.006;2023-08-08T09:48:53;8.30;;;3.85;;
46290;SDS011;32023;44.444;26.006;2023-08-08T09:51:26;4.47;;;4.07;;
46290;SDS011;32023;44.444;26.006;2023-08-08T09:53:53;7.55;;;4.20;;
46290;SDS011;32023;44.444;26.006;2023-08-08T09:56:39;5.68;;;3.78;;
46290;SDS011;32023;44.444;26.006;2023-08-08T10:02:26;3.38;;;0.90;;
46290;SDS011;32023;44.444;26.006;2023-08-08T10:05:19;3.13;;;0.80;;
46290;SDS011;32023;44.444;26.006;2023-08-08T10:08:06;3.13;;;1.08;;
46290;SDS011;32023;44.444;26.006;2023-08-08T10:14:13;2.25;;;1.08;;
46290;SDS011;32023;44.444;26.006;2023-08-08T10:17:06;3.13;;;0.80;;
46290;SDS011;32023;44.444;26.006;2023-08-08T10:19:35;1.70;;;0.70;;
46290;SDS011;32023;44.444;26.006;2023-08-08T10:22:33;1.25;;;0.77;;
46290;SDS011;32023;44.444;26.006;2023-08-08T10:25:07;2.67;;;0.90;;
46290;SDS011;32023;44.444;26.006;2023-08-08T10:33:42;2.15;;;1.00;;
46290;SDS011;32023;44.444;26.006;2023-08-08T10:36:51;3.85;;;1.00;;
46290;SDS011;32023;44.444;26.006;2023-08-08T10:39:27;3.13;;;0.80;;
46290;SDS011;32023;44.444;26.006;2023-08-08T10:42:25;1.15;;;1.00;;
46290;SDS011;32023;44.444;26.006;2023-08-08T10:45:41;8.57;;;1.02;;
46290;SDS011;32023;44.444;26.006;2023-08-08T10:48:19;2.53;;;0.90;;
46290;SDS011;32023;44.444;26.006;2023-08-08T10:50:49;1.98;;;0.80;;
46290;SDS011;32023;44.444;26.006;2023-08-08T10:56:13;2.50;;;0.88;;
46290;SDS011;32023;44.444;26.006;2023-08-08T11:01:48;2.15;;;0.70;;
46290;SDS011;32023;44.444;26.006;2023-08-08T11:04:35;3.83;;;0.80;;
46290;SDS011;32023;44.444;26.006;2023-08-08T11:07:05;1.52;;;0.75;;
46290;SDS011;32023;44.444;26.006;2023-08-08T11:12:31;1.05;;;0.70;;
46290;SDS011;32023;44.444;26.006;2023-08-08T11:18:20;2.05;;;0.77;;
46290;SDS011;32023;44.444;26.006;2023-08-08T11:20:48;0.80;;;0.70;;
46290;SDS011;32023;44.444;26.006;2023-08-08T11:23:30;0.50;;;0.50;;
46290;SDS011;32023;44.444;26.006;2023-08-08T11:26:13;1.67;;;0.60;;
46290;SDS011;32023;44.444;26.006;2023-08-08T11:29:12;0.65;;;0.55;;
46290;SDS011;32023;44.444;26.006;2023-08-08T11:31:38;0.30;;;0.30;;
46290;SDS011;32023;44.444;26.006;2023-08-08T11:34:10;0.30;;;0.25;;
46290;SDS011;32023;44.444;26.006;2023-08-08T11:44:46;4.68;;;0.50;;
46290;SDS011;32023;44.444;26.006;2023-08-08T11:47:54;0.40;;;0.40;;
46290;SDS011;32023;44.444;26.006;2023-08-08T11:53:28;3.42;;;0.52;;
46290;SDS011;32023;44.444;26.006;2023-08-08T11:55:59;0.70;;;0.35;;
46290;SDS011;32023;44.444;26.006;2023-08-08T11:58:35;4.55;;;0.38;;
46290;SDS011;32023;44.444;26.006;2023-08-08T12:01:05;6.43;;;0.77;;
46290;SDS011;32023;44.444;26.006;2023-08-08T12:06:46;1.20;;;0.38;;
46290;SDS011;32023;44.444;26.006;2023-08-08T12:09:28;4.53;;;0.40;;
46290;SDS011;32023;44.444;26.006;2023-08-08T12:12:04;2.50;;;0.60;;
46290;SDS011;32023;44.444;26.006;2023-08-08T12:17:43;1.67;;;0.40;;
46290;SDS011;32023;44.444;26.006;2023-08-08T12:20:21;2.50;;;0.68;;
46290;SDS011;32023;44.444;26.006;2023-08-08T12:22:47;2.22;;;0.38;;
46290;SDS011;32023;44.444;26.006;2023-08-08T12:28:35;0.35;;;0.35;;
46290;SDS011;32023;44.444;26.006;2023-08-08T12:31:11;0.95;;;0.50;;
46290;SDS011;32023;44.444;26.006;2023-08-08T12:33:38;0.50;;;0.50;;
46290;SDS011;32023;44.444;26.006;2023-08-08T12:36:05;0.85;;;0.40;;
46290;SDS011;32023;44.444;26.006;2023-08-08T12:38:37;1.75;;;0.63;;
46290;SDS011;32023;44.444;26.006;2023-08-08T12:41:06;1.98;;;0.60;;
46290;SDS011;32023;44.444;26.006;2023-08-08T12:43:43;1.65;;;0.50;;
46290;SDS011;32023;44.444;26.006;2023-08-08T12:46:18;0.77;;;0.55;;
46290;SDS011;32023;44.444;26.006;2023-08-08T12:48:44;0.38;;;0.22;;
46290;SDS011;32023;44.444;26.006;2023-08-08T12:51:12;0.47;;;0.43;;
46290;SDS011;32023;44.444;26.006;2023-08-08T13:06:56;0.65;;;0.50;;
46290;SDS011;32023;44.444;26.006;2023-08-08T13:10:17;0.75;;;0.70;;
46290;SDS011;32023;44.444;26.006;2023-08-08T13:19:48;1.00;;;0.40;;
46290;SDS011;32023;44.444;26.006;2023-08-08T13:32:58;0.63;;;0.50;;
46290;SDS011;32023;44.444;26.006;2023-08-08T13:35:32;0.68;;;0.60;;
46290;SDS011;32023;44.444;26.006;2023-08-08T13:41:57;1.35;;;0.52;;
46290;SDS011;32023;44.444;26.006;2023-08-08T13:44:39;1.38;;;0.60;;
46290;SDS011;32023;44.444;26.006;2023-08-08T13:49:53;1.50;;;0.55;;
46290;SDS011;32023;44.444;26.006;2023-08-08T13:52:23;2.53;;;0.63;;
46290;SDS011;32023;44.444;26.006;2023-08-08T13:55:12;2.72;;;0.77;;
46290;SDS011;32023;44.444;26.006;2023-08-08T13:58:09;0.80;;;0.50;;
46290;SDS011;32023;44.444;26.006;2023-08-08T14:03:48;3.23;;;1.47;;
46290;SDS011;32023;44.444;26.006;2023-08-08T14:06:40;1.35;;;0.73;;
46290;SDS011;32023;44.444;26.006;2023-08-08T14:09:23;2.40;;;1.40;;
46290;SDS011;32023;44.444;26.006;2023-08-08T14:12:07;2.28;;;0.63;;
46290;SDS011;32023;44.444;26.006;2023-08-08T14:14:46;0.93;;;0.57;;
46290;SDS011;32023;44.444;26.006;2023-08-08T14:17:31;4.63;;;0.52;;
46290;SDS011;32023;44.444;26.006;2023-08-08T14:29:25;1.17;;;0.30;;
46290;SDS011;32023;44.444;26.006;2023-08-08T14:32:42;2.03;;;0.50;;
46290;SDS011;32023;44.444;26.006;2023-08-08T14:35:11;3.00;;;0.60;;
46290;SDS011;32023;44.444;26.006;2023-08-08T14:37:42;2.20;;;0.57;;
46290;SDS011;32023;44.444;26.006;2023-08-08T14:43:40;3.92;;;1.00;;
46290;SDS011;32023;44.444;26.006;2023-08-08T14:47:08;0.73;;;0.52;;
46290;SDS011;32023;44.444;26.006;2023-08-08T14:49:55;1.20;;;0.75;;
46290;SDS011;32023;44.444;26.006;2023-08-08T14:56:49;1.60;;;0.93;;
46290;SDS011;32023;44.444;26.006;2023-08-08T15:44:48;1.17;;;0.63;;
46290;SDS011;32023;44.444;26.006;2023-08-08T15:51:33;2.28;;;0.50;;
46290;SDS011;32023;44.444;26.006;2023-08-08T16:10:46;4.32;;;0.95;;
46290;SDS011;32023;44.444;26.006;2023-08-08T16:17:02;1.35;;;0.73;;
46290;SDS011;32023;44.444;26.006;2023-08-08T16:22:54;4.65;;;1.02;;
46290;SDS011;32023;44.444;26.006;2023-08-08T16:25:38;1.38;;;0.80;;
46290;SDS011;32023;44.444;26.006;2023-08-08T16:28:12;0.93;;;0.40;;
46290;SDS011;32023;44.444;26.006;2023-08-08T16:30:38;1.83;;;0.90;;
46290;SDS011;32023;44.444;26.006;2023-08-08T16:33:16;6.38;;;1.20;;
46290;SDS011;32023;44.444;26.006;2023-08-08T16:35:43;0.70;;;0.63;;
46290;SDS011;32023;44.444;26.006;2023-08-08T16:38:15;1.17;;;0.85;;
46290;SDS011;32023;44.444;26.006;2023-08-08T16:44:18;2.45;;;0.80;;
46290;SDS011;32023;44.444;26.006;2023-08-08T16:47:10;6.65;;;2.63;;
46290;SDS011;32023;44.444;26.006;2023-08-08T16:49:57;3.10;;;2.25;;
46290;SDS011;32023;44.444;26.006;2023-08-08T16:52:31;4.38;;;2.03;;
46290;SDS011;32023;44.444;26.006;2023-08-08T16:55:00;3.13;;;1.60;;
46290;SDS011;32023;44.444;26.006;2023-08-08T16:57:47;3.80;;;2.58;;
46290;SDS011;32023;44.444;26.006;2023-08-08T17:10:11;1.15;;;0.88;;
46290;SDS011;32023;44.444;26.006;2023-08-08T17:16:09;1.80;;;1.48;;
46290;SDS011;32023;44.444;26.006;2023-08-08T17:18:40;2.20;;;0.90;;
46290;SDS011;32023;44.444;26.006;2023-08-08T17:21:38;2.05;;;0.60;;
46290;SDS011;32023;44.444;26.006;2023-08-08T17:27:57;1.75;;;0.70;;
46290;SDS011;32023;44.444;26.006;2023-08-08T17:30:33;5.55;;;1.00;;
46290;SDS011;32023;44.444;26.006;2023-08-08T17:33:45;4.70;;;0.80;;
46290;SDS011;32023;44.444;26.006;2023-08-08T17:36:31;4.68;;;1.27;;
46290;SDS011;32023;44.444;26.006;2023-08-08T17:38:59;4.35;;;1.77;;
46290;SDS011;32023;44.444;26.006;2023-08-08T17:44:45;8.45;;;2.55;;
46290;SDS011;32023;44.444;26.006;2023-08-08T17:47:17;8.93;;;2.15;;
46290;SDS011;32023;44.444;26.006;2023-08-08T17:49:44;8.52;;;2.08;;
46290;SDS011;32023;44.444;26.006;2023-08-08T17:52:15;22.80;;;6.68;;
46290;SDS011;32023;44.444;26.006;2023-08-08T17:55:01;56.30;;;11.68;;
46290;SDS011;32023;44.444;26.006;2023-08-08T17:57:49;45.72;;;9.75;;
46290;SDS011;32023;44.444;26.006;2023-08-08T18:00:15;12.68;;;3.10;;
46290;SDS011;32023;44.444;26.006;2023-08-08T18:02:45;26.13;;;3.55;;
46290;SDS011;32023;44.444;26.006;2023-08-08T18:05:16;26.10;;;3.50;;
46290;SDS011;32023;44.444;26.006;2023-08-08T18:08:20;27.67;;;6.38;;
46290;SDS011;32023;44.444;26.006;2023-08-08T18:10:48;25.55;;;5.70;;
46290;SDS011;32023;44.444;26.006;2023-08-08T18:16:12;6.53;;;1.23;;
46290;SDS011;32023;44.444;26.006;2023-08-08T18:18:48;9.63;;;1.17;;
46290;SDS011;32023;44.444;26.006;2023-08-08T18:21:31;2.00;;;1.00;;
46290;SDS011;32023;44.444;26.006;2023-08-08T18:24:09;2.05;;;1.00;;
46290;SDS011;32023;44.444;26.006;2023-08-08T18:26:36;3.50;;;1.13;;
46290;SDS011;32023;44.444;26.006;2023-08-08T18:29:19;3.80;;;1.13;;
46290;SDS011;32023;44.444;26.006;2023-08-08T18:31:56;3.25;;;1.27;;
46290;SDS011;32023;44.444;26.006;2023-08-08T18:34:41;7.50;;;1.23;;
46290;SDS011;32023;44.444;26.006;2023-08-08T18:43:22;1.90;;;1.30;;
46290;SDS011;32023;44.444;26.006;2023-08-08T18:48:54;3.95;;;1.08;;
46290;SDS011;32023;44.444;26.006;2023-08-08T18:51:26;2.85;;;1.50;;
46290;SDS011;32023;44.444;26.006;2023-08-08T18:53:57;3.60;;;1.42;;
46290;SDS011;32023;44.444;26.006;2023-08-08T18:56:34;6.20;;;1.77;;
46290;SDS011;32023;44.444;26.006;2023-08-08T18:59:21;2.45;;;1.40;;
46290;SDS011;32023;44.444;26.006;2023-08-08T19:02:03;6.65;;;2.53;;
46290;SDS011;32023;44.444;26.006;2023-08-08T19:08:41;5.28;;;1.88;;
46290;SDS011;32023;44.444;26.006;2023-08-08T19:14:56;4.95;;;1.67;;
46290;SDS011;32023;44.444;26.006;2023-08-08T19:17:45;4.13;;;1.48;;
46290;SDS011;32023;44.444;26.006;2023-08-08T19:20:16;3.70;;;1.48;;
46290;SDS011;32023;44.444;26.006;2023-08-08T19:22:43;3.00;;;1.52;;
46290;SDS011;32023;44.444;26.006;2023-08-08T19:25:12;3.20;;;1.67;;
46290;SDS011;32023;44.444;26.006;2023-08-08T19:27:41;3.92;;;1.27;;
46290;SDS011;32023;44.444;26.006;2023-08-08T19:33:14;3.08;;;1.65;;
46290;SDS011;32023;44.444;26.006;2023-08-08T19:35:49;5.32;;;2.60;;
46290;SDS011;32023;44.444;26.006;2023-08-08T19:38:22;3.75;;;1.65;;
46290;SDS011;32023;44.444;26.006;2023-08-08T19:44:32;6.75;;;2.47;;
46290;SDS011;32023;44.444;26.006;2023-08-08T19:51:05;5.18;;;1.75;;
46290;SDS011;32023;44.444;26.006;2023-08-08T20:00:51;4.65;;;1.60;;
46290;SDS011;32023;44.444;26.006;2023-08-08T20:10:47;4.47;;;1.55;;
46290;SDS011;32023;44.444;26.006;2023-08-08T20:13:32;4.15;;;1.48;;
46290;SDS011;32023;44.444;26.006;2023-08-08T20:16:05;5.15;;;1.27;;
46290;SDS011;32023;44.444;26.006;2023-08-08T20:19:25;2.80;;;1.50;;
46290;SDS011;32023;44.444;26.006;2023-08-08T20:21:57;3.08;;;1.65;;
46290;SDS011;32023;44.444;26.006;2023-08-08T20:28:22;3.60;;;2.13;;
46290;SDS011;32023;44.444;26.006;2023-08-08T20:31:09;5.88;;;1.73;;
46290;SDS011;32023;44.444;26.006;2023-08-08T20:33:46;3.85;;;1.65;;
46290;SDS011;32023;44.444;26.006;2023-08-08T20:36:20;2.08;;;1.27;;
46290;SDS011;32023;44.444;26.006;2023-08-08T20:39:05;5.75;;;2.63;;
46290;SDS011;32023;44.444;26.006;2023-08-08T20:41:44;3.28;;;2.03;;
46290;SDS011;32023;44.444;26.006;2023-08-08T20:51:15;3.90;;;1.52;;
46290;SDS011;32023;44.444;26.006;2023-08-08T21:01:20;4.65;;;2.03;;
46290;SDS011;32023;44.444;26.006;2023-08-08T21:04:28;5.63;;;2.22;;
46290;SDS011;32023;44.444;26.006;2023-08-08T21:07:38;3.58;;;1.73;;
46290;SDS011;32023;44.444;26.006;2023-08-08T21:10:26;3.35;;;2.05;;
46290;SDS011;32023;44.444;26.006;2023-08-08T21:13:32;7.47;;;2.00;;
46290;SDS011;32023;44.444;26.006;2023-08-08T21:16:01;5.00;;;1.58;;
46290;SDS011;32023;44.444;26.006;2023-08-08T21:18:48;3.90;;;2.28;;
46290;SDS011;32023;44.444;26.006;2023-08-08T21:21:42;5.85;;;2.92;;
46290;SDS011;32023;44.444;26.006;2023-08-08T21:24:27;4.72;;;2.20;;
46290;SDS011;32023;44.444;26.006;2023-08-08T21:27:03;6.30;;;2.13;;
46290;SDS011;32023;44.444;26.006;2023-08-08T21:29:53;7.47;;;2.42;;
46290;SDS011;32023;44.444;26.006;2023-08-08T21:39:29;4.05;;;1.77;;
46290;SDS011;32023;44.444;26.006;2023-08-08T21:41:56;3.08;;;1.67;;
46290;SDS011;32023;44.444;26.006;2023-08-08T21:44:28;2.30;;;1.58;;
46290;SDS011;32023;44.444;26.006;2023-08-08T21:47:02;2.00;;;1.40;;
46290;SDS011;32023;44.444;26.006;2023-08-08T21:49:49;2.60;;;1.50;;
46290;SDS011;32023;44.444;26.006;2023-08-08T21:52:34;2.13;;;1.23;;
46290;SDS011;32023;44.444;26.006;2023-08-08T21:55:48;3.30;;;1.40;;
46290;SDS011;32023;44.444;26.006;2023-08-08T21:58:23;3.63;;;1.55;;
46290;SDS011;32023;44.444;26.006;2023-08-08T22:00:55;2.42;;;1.17;;
46290;SDS011;32023;44.444;26.006;2023-08-08T22:03:25;2.30;;;1.23;;
46290;SDS011;32023;44.444;26.006;2023-08-08T22:06:00;4.85;;;1.17;;
46290;SDS011;32023;44.444;26.006;2023-08-08T22:11:42;2.67;;;1.67;;
46290;SDS011;32023;44.444;26.006;2023-08-08T22:17:13;2.95;;;1.92;;
46290;SDS011;32023;44.444;26.006;2023-08-08T22:19:40;3.03;;;1.73;;
46290;SDS011;32023;44.444;26.006;2023-08-08T22:22:18;3.33;;;1.65;;
46290;SDS011;32023;44.444;26.006;2023-08-08T22:25:05;2.53;;;1.55;;
46290;SDS011;32023;44.444;26.006;2023-08-08T22:27:43;3.50;;;1.52;;
46290;SDS011;32023;44.444;26.006;2023-08-08T22:30:13;5.38;;;1.75;;
46290;SDS011;32023;44.444;26.006;2023-08-08T22:33:08;2.55;;;1.75;;
46290;SDS011;32023;44.444;26.006;2023-08-08T22:35:55;2.63;;;1.50;;
46290;SDS011;32023;44.444;26.006;2023-08-08T22:38:33;3.20;;;1.50;;
46290;SDS011;32023;44.444;26.006;2023-08-08T22:43:51;2.95;;;1.90;;
46290;SDS011;32023;44.444;26.006;2023-08-08T22:46:21;2.13;;;1.60;;
46290;SDS011;32023;44.444;26.006;2023-08-08T22:48:51;3.65;;;2.05;;
46290;SDS011;32023;44.444;26.006;2023-08-08T22:51:26;4.22;;;1.73;;
46290;SDS011;32023;44.444;26.006;2023-08-08T22:53:52;1.80;;;1.40;;
46290;SDS011;32023;44.444;26.006;2023-08-08T22:56:24;3.72;;;1.58;;
46290;SDS011;32023;44.444;26.006;2023-08-08T22:58:54;3.97;;;1.73;;
46290;SDS011;32023;44.444;26.006;2023-08-08T23:01:22;3.70;;;1.45;;
46290;SDS011;32023;44.444;26.006;2023-08-08T23:03:56;3.63;;;1.88;;
46290;SDS011;32023;44.444;26.006;2023-08-08T23:06:25;4.35;;;1.90;;